sensor_id;sensor_type;location;lat;lon;timestamp;pressure;altitude;pressure_sealevel;temperature;humidity
19676;BME280;39539;52.202;9.876;2023-03-14T00:02:18;98256.31;;;10.01;100.00
19676;BME280;39539;52.202;9.876;2023-03-14T00:04:43;98257.13;;;10.17;100.00
19676;BME280;39539;52.202;9.876;2023-03-14T00:07:11;98247.28;;;10.12;100.00
19676;BME280;39539;52.202;9.876;2023-03-14T00:09:37;98233.78;;;10.14;100.00
19676;BME280;39539;52.202;9.876;2023-03-14T00:12:03;98220.47;;;10.03;100.00
19676;BME280;39539;52.202;9.876;2023-03-14T00:14:29;98223.94;;;10.04;100.00
19676;BME280;39539;52.202;9.876;2023-03-14T00:16:56;98226.06;;;10.12;100.00
19676;BME280;39539;52.202;9.876;2023-03-14T00:19:21;98234.56;;;10.09;100.00
19676;BME280;39539;52.202;9.876;2023-03-14T00:21:46;98235.09;;;10.21;100.00
19676;BME280;39539;52.202;9.876;2023-03-14T00:24:12;98216.78;;;10.30;100.00
19676;BME280;39539;52.202;9.876;2023-03-14T00:26:39;98225.59;;;10.30;100.00
19676;BME280;39539;52.202;9.876;2023-03-14T00:29:04;98238.59;;;10.37;100.00
19676;BME280;39539;52.202;9.876;2023-03-14T00:31:29;98248.94;;;10.33;100.00
19676;BME280;39539;52.202;9.876;2023-03-14T00:33:56;98235.34;;;10.15;100.00
19676;BME280;39539;52.202;9.876;2023-03-14T00:36:22;98237.75;;;10.21;100.00
19676;BME280;39539;52.202;9.876;2023-03-14T00:38:50;98232.44;;;10.21;100.00
19676;BME280;39539;52.202;9.876;2023-03-14T00:41:18;98262.22;;;10.28;100.00
19676;BME280;39539;52.202;9.876;2023-03-14T00:43:44;98255.53;;;10.26;100.00
19676;BME280;39539;52.202;9.876;2023-03-14T00:46:12;98242.78;;;10.18;100.00
19676;BME280;39539;52.202;9.876;2023-03-14T00:48:38;98265.91;;;10.27;100.00
19676;BME280;39539;52.202;9.876;2023-03-14T00:51:07;98274.13;;;10.26;100.00
19676;BME280;39539;52.202;9.876;2023-03-14T00:53:37;98268.06;;;10.30;100.00
19676;BME280;39539;52.202;9.876;2023-03-14T00:56:05;98237.22;;;10.24;100.00
19676;BME280;39539;52.202;9.876;2023-03-14T00:58:31;98254.25;;;10.39;100.00
19676;BME280;39539;52.202;9.876;2023-03-14T01:00:57;98228.75;;;10.38;100.00
19676;BME280;39539;52.202;9.876;2023-03-14T01:03:23;98237.28;;;10.45;100.00
19676;BME280;39539;52.202;9.876;2023-03-14T01:05:49;98245.75;;;10.47;100.00
19676;BME280;39539;52.202;9.876;2023-03-14T01:08:15;98212.81;;;10.38;100.00
19676;BME280;39539;52.202;9.876;2023-03-14T01:10:41;98212.56;;;10.39;100.00
19676;BME280;39539;52.202;9.876;2023-03-14T01:13:08;98218.69;;;10.40;100.00
19676;BME280;39539;52.202;9.876;2023-03-14T01:15:36;98221.88;;;10.42;100.00
19676;BME280;39539;52.202;9.876;2023-03-14T01:18:03;98206.97;;;10.36;100.00
19676;BME280;39539;52.202;9.876;2023-03-14T01:20:28;98202.19;;;10.27;100.00
19676;BME280;39539;52.202;9.876;2023-03-14T01:22:53;98210.66;;;10.24;100.00
19676;BME280;39539;52.202;9.876;2023-03-14T01:25:20;98209.38;;;10.32;100.00
19676;BME280;39539;52.202;9.876;2023-03-14T01:27:46;98200.09;;;10.40;100.00
19676;BME280;39539;52.202;9.876;2023-03-14T01:30:12;98193.19;;;10.33;100.00
19676;BME280;39539;52.202;9.876;2023-03-14T01:32:38;98186.81;;;10.29;100.00
19676;BME280;39539;52.202;9.876;2023-03-14T01:35:04;98194.47;;;10.26;100.00
19676;BME280;39539;52.202;9.876;2023-03-14T01:37:29;98181.19;;;10.16;100.00
19676;BME280;39539;52.202;9.876;2023-03-14T01:39:55;98188.38;;;10.15;100.00
19676;BME280;39539;52.202;9.876;2023-03-14T01:42:20;98197.41;;;10.09;100.00
19676;BME280;39539;52.202;9.876;2023-03-14T01:44:54;98201.09;;;10.18;100.00
19676;BME280;39539;52.202;9.876;2023-03-14T01:47:19;98209.88;;;10.24;100.00
19676;BME280;39539;52.202;9.876;2023-03-14T01:49:58;98204.06;;;10.32;100.00
19676;BME280;39539;52.202;9.876;2023-03-14T01:52:45;98176.72;;;10.31;100.00
19676;BME280;39539;52.202;9.876;2023-03-14T01:55:18;98165.00;;;10.17;100.00
19676;BME280;39539;52.202;9.876;2023-03-14T01:57:50;98166.34;;;10.20;100.00
19676;BME280;39539;52.202;9.876;2023-03-14T02:00:20;98153.88;;;10.25;100.00
19676;BME280;39539;52.202;9.876;2023-03-14T02:02:48;98145.13;;;10.30;100.00
19676;BME280;39539;52.202;9.876;2023-03-14T02:05:23;98157.84;;;10.33;100.00
19676;BME280;39539;52.202;9.876;2023-03-14T02:07:52;98148.81;;;10.24;100.00
19676;BME280;39539;52.202;9.876;2023-03-14T02:10:27;98144.03;;;10.16;100.00
19676;BME280;39539;52.202;9.876;2023-03-14T02:12:55;98147.75;;;10.15;100.00
19676;BME280;39539;52.202;9.876;2023-03-14T02:15:22;98143.25;;;10.10;100.00
19676;BME280;39539;52.202;9.876;2023-03-14T02:17:47;98139.78;;;10.04;100.00
19676;BME280;39539;52.202;9.876;2023-03-14T02:22:50;98171.38;;;10.16;100.00
19676;BME280;39539;52.202;9.876;2023-03-14T02:25:46;98169.28;;;10.08;100.00
19676;BME280;39539;52.202;9.876;2023-03-14T02:28:15;98170.84;;;10.04;100.00
19676;BME280;39539;52.202;9.876;2023-03-14T02:30:41;98172.16;;;9.96;100.00
19676;BME280;39539;52.202;9.876;2023-03-14T02:33:12;98151.19;;;9.84;100.00
19676;BME280;39539;52.202;9.876;2023-03-14T02:36:02;98157.31;;;9.90;100.00
19676;BME280;39539;52.202;9.876;2023-03-14T02:38:44;98152.28;;;9.88;100.00
19676;BME280;39539;52.202;9.876;2023-03-14T02:41:11;98140.59;;;9.84;100.00
19676;BME280;39539;52.202;9.876;2023-03-14T02:43:43;98138.72;;;9.90;100.00
19676;BME280;39539;52.202;9.876;2023-03-14T02:46:10;98150.66;;;9.93;100.00
19676;BME280;39539;52.202;9.876;2023-03-14T02:48:43;98135.81;;;9.92;100.00
19676;BME280;39539;52.202;9.876;2023-03-14T02:51:11;98128.91;;;9.90;100.00
19676;BME280;39539;52.202;9.876;2023-03-14T02:53:38;98126.28;;;9.85;100.00
19676;BME280;39539;52.202;9.876;2023-03-14T02:56:05;98117.50;;;9.80;100.00
19676;BME280;39539;52.202;9.876;2023-03-14T02:58:30;98106.63;;;9.81;100.00
19676;BME280;39539;52.202;9.876;2023-03-14T03:00:56;98119.63;;;9.98;100.00
19676;BME280;39539;52.202;9.876;2023-03-14T03:03:21;98113.25;;;10.04;100.00
19676;BME280;39539;52.202;9.876;2023-03-14T03:05:52;98106.91;;;10.00;100.00
19676;BME280;39539;52.202;9.876;2023-03-14T03:08:21;98108.47;;;10.11;100.00
19676;BME280;39539;52.202;9.876;2023-03-14T03:10:47;98110.06;;;10.18;100.00
19676;BME280;39539;52.202;9.876;2023-03-14T03:13:13;98108.47;;;10.17;100.00
19676;BME280;39539;52.202;9.876;2023-03-14T03:15:39;98115.13;;;10.19;100.00
19676;BME280;39539;52.202;9.876;2023-03-14T03:18:04;98101.84;;;10.14;100.00
19676;BME280;39539;52.202;9.876;2023-03-14T03:20:30;98097.31;;;10.09;100.00
19676;BME280;39539;52.202;9.876;2023-03-14T03:22:55;98087.25;;;10.11;100.00
19676;BME280;39539;52.202;9.876;2023-03-14T03:25:20;98097.31;;;10.15;100.00
19676;BME280;39539;52.202;9.876;2023-03-14T03:27:46;98081.16;;;10.01;100.00
19676;BME280;39539;52.202;9.876;2023-03-14T03:30:11;98085.66;;;10.00;100.00
19676;BME280;39539;52.202;9.876;2023-03-14T03:32:37;98058.34;;;9.84;100.00
19676;BME280;39539;52.202;9.876;2023-03-14T03:35:03;98069.47;;;9.86;100.00
19676;BME280;39539;52.202;9.876;2023-03-14T03:37:32;98074.25;;;9.89;100.00
19676;BME280;39539;52.202;9.876;2023-03-14T03:39:58;98068.16;;;9.94;100.00
19676;BME280;39539;52.202;9.876;2023-03-14T03:42:23;98080.59;;;10.04;100.00
19676;BME280;39539;52.202;9.876;2023-03-14T03:44:49;98083.81;;;10.01;100.00
19676;BME280;39539;52.202;9.876;2023-03-14T03:47:15;98084.59;;;9.96;100.00
19676;BME280;39539;52.202;9.876;2023-03-14T03:49:40;98071.88;;;9.78;100.00
19676;BME280;39539;52.202;9.876;2023-03-14T03:52:07;98079.56;;;9.79;100.00
19676;BME280;39539;52.202;9.876;2023-03-14T03:54:34;98107.16;;;9.83;100.00
19676;BME280;39539;52.202;9.876;2023-03-14T03:56:59;98101.31;;;9.81;100.00
19676;BME280;39539;52.202;9.876;2023-03-14T03:59:24;98126.25;;;9.75;100.00
19676;BME280;39539;52.202;9.876;2023-03-14T04:01:50;98115.63;;;9.65;100.00
19676;BME280;39539;52.202;9.876;2023-03-14T04:04:15;98123.84;;;9.63;100.00
19676;BME280;39539;52.202;9.876;2023-03-14T04:06:40;98149.28;;;9.59;100.00
19676;BME280;39539;52.202;9.876;2023-03-14T04:09:07;98157.50;;;9.48;100.00
19676;BME280;39539;52.202;9.876;2023-03-14T04:11:33;98136.47;;;9.15;100.00
19676;BME280;39539;52.202;9.876;2023-03-14T04:13:58;98146.78;;;9.17;100.00
19676;BME280;39539;52.202;9.876;2023-03-14T04:16:24;98126.06;;;8.93;100.00
19676;BME280;39539;52.202;9.876;2023-03-14T04:18:52;98141.66;;;8.85;100.00
19676;BME280;39539;52.202;9.876;2023-03-14T04:21:18;98123.59;;;8.76;100.00
19676;BME280;39539;52.202;9.876;2023-03-14T04:23:45;98122.44;;;8.57;100.00
19676;BME280;39539;52.202;9.876;2023-03-14T04:26:10;98125.34;;;8.56;100.00
19676;BME280;39539;52.202;9.876;2023-03-14T04:28:36;98127.19;;;8.55;100.00
19676;BME280;39539;52.202;9.876;2023-03-14T04:31:16;98142.06;;;8.61;100.00
19676;BME280;39539;52.202;9.876;2023-03-14T04:33:42;98147.03;;;8.52;100.00
19676;BME280;39539;52.202;9.876;2023-03-14T04:36:08;98137.97;;;8.43;100.00
19676;BME280;39539;52.202;9.876;2023-03-14T04:38:34;98147.53;;;8.44;100.00
19676;BME280;39539;52.202;9.876;2023-03-14T04:40:59;98146.38;;;8.35;100.00
19676;BME280;39539;52.202;9.876;2023-03-14T04:43:26;98133.63;;;8.27;100.00
19676;BME280;39539;52.202;9.876;2023-03-14T04:45:53;98129.41;;;8.31;100.00
19676;BME280;39539;52.202;9.876;2023-03-14T04:48:20;98140.25;;;8.35;100.00
19676;BME280;39539;52.202;9.876;2023-03-14T04:50:48;98128.84;;;8.29;100.00
19676;BME280;39539;52.202;9.876;2023-03-14T04:53:14;98133.84;;;8.25;100.00
19676;BME280;39539;52.202;9.876;2023-03-14T04:55:40;98131.72;;;8.22;100.00
19676;BME280;39539;52.202;9.876;2023-03-14T04:58:07;98131.94;;;8.16;100.00
19676;BME280;39539;52.202;9.876;2023-03-14T05:00:32;98125.56;;;8.12;100.00
19676;BME280;39539;52.202;9.876;2023-03-14T05:02:58;98130.34;;;8.15;100.00
19676;BME280;39539;52.202;9.876;2023-03-14T05:05:23;98117.63;;;8.12;100.00
19676;BME280;39539;52.202;9.876;2023-03-14T05:07:49;98133.63;;;8.27;100.00
19676;BME280;39539;52.202;9.876;2023-03-14T05:10:14;98136.09;;;8.39;100.00
19676;BME280;39539;52.202;9.876;2023-03-14T05:12:40;98141.66;;;8.42;100.00
19676;BME280;39539;52.202;9.876;2023-03-14T05:15:06;98134.06;;;8.51;100.00
19676;BME280;39539;52.202;9.876;2023-03-14T05:17:35;98125.88;;;8.52;100.00
19676;BME280;39539;52.202;9.876;2023-03-14T05:20:00;98124.75;;;8.48;100.00
19676;BME280;39539;52.202;9.876;2023-03-14T05:22:26;98122.09;;;8.43;100.00
19676;BME280;39539;52.202;9.876;2023-03-14T05:24:51;98124.50;;;8.45;100.00
19676;BME280;39539;52.202;9.876;2023-03-14T05:27:18;98124.44;;;8.40;100.00
19676;BME280;39539;52.202;9.876;2023-03-14T05:29:43;98113.78;;;8.35;100.00
19676;BME280;39539;52.202;9.876;2023-03-14T05:32:12;98125.16;;;8.30;100.00
19676;BME280;39539;52.202;9.876;2023-03-14T05:34:37;98113.44;;;8.21;100.00
19676;BME280;39539;52.202;9.876;2023-03-14T05:37:02;98104.97;;;8.19;100.00
19676;BME280;39539;52.202;9.876;2023-03-14T05:39:28;98104.91;;;8.08;100.00
19676;BME280;39539;52.202;9.876;2023-03-14T05:41:53;98105.44;;;8.10;100.00
19676;BME280;39539;52.202;9.876;2023-03-14T05:44:27;98099.31;;;8.05;100.00
19676;BME280;39539;52.202;9.876;2023-03-14T05:46:52;98114.19;;;8.11;100.00
19676;BME280;39539;52.202;9.876;2023-03-14T05:49:17;98084.16;;;7.95;100.00
19676;BME280;39539;52.202;9.876;2023-03-14T05:51:43;98105.97;;;8.07;100.00
19676;BME280;39539;52.202;9.876;2023-03-14T05:54:08;98109.97;;;8.15;100.00
19676;BME280;39539;52.202;9.876;2023-03-14T05:56:34;98104.44;;;8.17;100.00
19676;BME280;39539;52.202;9.876;2023-03-14T05:59:00;98103.91;;;8.20;100.00
19676;BME280;39539;52.202;9.876;2023-03-14T06:01:27;98110.56;;;8.22;100.00
19676;BME280;39539;52.202;9.876;2023-03-14T06:03:54;98102.28;;;8.14;100.00
19676;BME280;39539;52.202;9.876;2023-03-14T06:06:19;98109.16;;;8.15;100.00
19676;BME280;39539;52.202;9.876;2023-03-14T06:08:44;98107.03;;;8.12;100.00
19676;BME280;39539;52.202;9.876;2023-03-14T06:11:10;98105.97;;;8.07;100.00
19676;BME280;39539;52.202;9.876;2023-03-14T06:13:35;98115.19;;;8.05;100.00
19676;BME280;39539;52.202;9.876;2023-03-14T06:16:00;98124.00;;;8.16;100.00
19676;BME280;39539;52.202;9.876;2023-03-14T06:18:26;98121.00;;;8.39;100.00
19676;BME280;39539;52.202;9.876;2023-03-14T06:20:55;98112.38;;;8.59;100.00
19676;BME280;39539;52.202;9.876;2023-03-14T06:23:21;98118.59;;;8.85;100.00
19676;BME280;39539;52.202;9.876;2023-03-14T06:25:46;98107.94;;;8.70;100.00
19676;BME280;39539;52.202;9.876;2023-03-14T06:28:12;98123.88;;;8.80;100.00
19676;BME280;39539;52.202;9.876;2023-03-14T06:30:37;98125.50;;;8.86;100.00
19676;BME280;39539;52.202;9.876;2023-03-14T06:33:04;98128.44;;;9.00;100.00
19676;BME280;39539;52.202;9.876;2023-03-14T06:35:29;98123.97;;;9.06;100.00
19676;BME280;39539;52.202;9.876;2023-03-14T06:37:56;98130.34;;;9.10;100.00
19676;BME280;39539;52.202;9.876;2023-03-14T06:40:23;98133.88;;;9.26;100.00
19676;BME280;39539;52.202;9.876;2023-03-14T06:42:50;98136.81;;;9.34;100.00
19676;BME280;39539;52.202;9.876;2023-03-14T06:45:17;98133.63;;;9.48;100.00
19676;BME280;39539;52.202;9.876;2023-03-14T06:47:42;98131.53;;;9.65;100.00
19676;BME280;39539;52.202;9.876;2023-03-14T06:50:09;98132.06;;;9.67;100.00
19676;BME280;39539;52.202;9.876;2023-03-14T06:52:35;98129.69;;;9.71;100.00
19676;BME280;39539;52.202;9.876;2023-03-14T06:55:16;98131.56;;;9.60;100.00
19676;BME280;39539;52.202;9.876;2023-03-14T06:57:42;98122.50;;;9.46;100.00
19676;BME280;39539;52.202;9.876;2023-03-14T07:00:10;98124.34;;;9.40;100.00
19676;BME280;39539;52.202;9.876;2023-03-14T07:02:36;98122.22;;;9.42;100.00
19676;BME280;39539;52.202;9.876;2023-03-14T07:05:03;98130.97;;;9.48;100.00
19676;BME280;39539;52.202;9.876;2023-03-14T07:07:28;98125.97;;;9.46;100.00
19676;BME280;39539;52.202;9.876;2023-03-14T07:09:54;98131.78;;;9.48;100.00
19676;BME280;39539;52.202;9.876;2023-03-14T07:12:19;98147.69;;;9.53;100.00
19676;BME280;39539;52.202;9.876;2023-03-14T07:14:45;98145.31;;;9.52;100.00
19676;BME280;39539;52.202;9.876;2023-03-14T07:17:10;98131.53;;;9.55;100.00
19676;BME280;39539;52.202;9.876;2023-03-14T07:19:37;98134.75;;;9.72;100.00
19676;BME280;39539;52.202;9.876;2023-03-14T07:22:04;98135.56;;;9.83;100.00
19676;BME280;39539;52.202;9.876;2023-03-14T07:24:29;98128.66;;;9.87;100.00
19676;BME280;39539;52.202;9.876;2023-03-14T07:26:55;98136.34;;;9.94;100.00
19676;BME280;39539;52.202;9.876;2023-03-14T07:32:36;98133.16;;;9.71;100.00
19676;BME280;39539;52.202;9.876;2023-03-14T07:35:02;98131.56;;;9.70;100.00
19676;BME280;39539;52.202;9.876;2023-03-14T07:37:27;98131.81;;;9.58;100.00
19676;BME280;39539;52.202;9.876;2023-03-14T07:39:52;98125.44;;;9.54;100.00
19676;BME280;39539;52.202;9.876;2023-03-14T07:42:18;98131.03;;;10.34;100.00
19676;BME280;39539;52.202;9.876;2023-03-14T07:44:44;98127.56;;;10.49;100.00
19676;BME280;39539;52.202;9.876;2023-03-14T07:47:09;98119.59;;;10.44;100.00
19676;BME280;39539;52.202;9.876;2023-03-14T07:49:34;98113.53;;;10.28;100.00
19676;BME280;39539;52.202;9.876;2023-03-14T07:52:01;98112.94;;;10.57;100.00
19676;BME280;39539;52.202;9.876;2023-03-14T07:54:27;98109.69;;;10.81;100.00
19676;BME280;39539;52.202;9.876;2023-03-14T07:56:52;98112.09;;;10.72;100.00
19676;BME280;39539;52.202;9.876;2023-03-14T07:59:18;98097.53;;;10.59;100.00
19676;BME280;39539;52.202;9.876;2023-03-14T08:01:44;98086.97;;;10.18;100.00
19676;BME280;39539;52.202;9.876;2023-03-14T08:04:09;98092.25;;;10.49;100.00
19676;BME280;39539;52.202;9.876;2023-03-14T08:06:36;98093.88;;;10.45;100.00
19676;BME280;39539;52.202;9.876;2023-03-14T08:09:02;98095.00;;;10.98;100.00
19676;BME280;39539;52.202;9.876;2023-03-14T08:11:28;98103.13;;;11.22;100.00
19676;BME280;39539;52.202;9.876;2023-03-14T08:13:53;98093.47;;;11.32;100.00
19676;BME280;39539;52.202;9.876;2023-03-14T08:16:19;98097.81;;;11.17;100.00
19676;BME280;39539;52.202;9.876;2023-03-14T08:18:45;98095.13;;;11.22;100.00
19676;BME280;39539;52.202;9.876;2023-03-14T08:21:10;98097.16;;;11.41;100.00
19676;BME280;39539;52.202;9.876;2023-03-14T08:23:36;98091.41;;;11.23;100.00
19676;BME280;39539;52.202;9.876;2023-03-14T08:26:02;98111.63;;;11.24;100.00
19676;BME280;39539;52.202;9.876;2023-03-14T08:28:27;98105.00;;;11.17;100.00
19676;BME280;39539;52.202;9.876;2023-03-14T08:30:58;98123.72;;;10.96;100.00
19676;BME280;39539;52.202;9.876;2023-03-14T08:33:25;98120.84;;;10.83;100.00
19676;BME280;39539;52.202;9.876;2023-03-14T08:35:55;98117.38;;;10.82;100.00
19676;BME280;39539;52.202;9.876;2023-03-14T08:38:20;98102.81;;;10.69;100.00
19676;BME280;39539;52.202;9.876;2023-03-14T08:40:46;98111.44;;;11.00;100.00
19676;BME280;39539;52.202;9.876;2023-03-14T08:43:11;98121.81;;;11.07;100.00
19676;BME280;39539;52.202;9.876;2023-03-14T08:45:37;98104.22;;;11.11;100.00
19676;BME280;39539;52.202;9.876;2023-03-14T08:48:02;98112.44;;;11.20;100.00
19676;BME280;39539;52.202;9.876;2023-03-14T08:50:28;98098.78;;;11.32;100.00
19676;BME280;39539;52.202;9.876;2023-03-14T08:52:53;98101.44;;;11.37;100.00
19676;BME280;39539;52.202;9.876;2023-03-14T08:55:19;98112.75;;;11.58;100.00
19676;BME280;39539;52.202;9.876;2023-03-14T08:57:45;98111.44;;;11.55;100.00
19676;BME280;39539;52.202;9.876;2023-03-14T09:00:11;98106.94;;;11.51;100.00
19676;BME280;39539;52.202;9.876;2023-03-14T09:02:41;98115.53;;;11.77;100.00
19676;BME280;39539;52.202;9.876;2023-03-14T09:05:08;98109.41;;;11.76;100.00
19676;BME280;39539;52.202;9.876;2023-03-14T09:07:33;98102.97;;;11.82;100.00
19676;BME280;39539;52.202;9.876;2023-03-14T09:09:59;98108.50;;;11.96;100.00
19676;BME280;39539;52.202;9.876;2023-03-14T09:12:24;98105.09;;;11.90;100.00
19676;BME280;39539;52.202;9.876;2023-03-14T09:14:50;98096.31;;;11.85;100.00
19676;BME280;39539;52.202;9.876;2023-03-14T09:17:15;98104.91;;;12.11;100.00
19676;BME280;39539;52.202;9.876;2023-03-14T09:19:40;98090.34;;;12.32;100.00
19676;BME280;39539;52.202;9.876;2023-03-14T09:22:06;98099.25;;;13.14;100.00
19676;BME280;39539;52.202;9.876;2023-03-14T09:24:31;98094.00;;;13.84;94.84
19676;BME280;39539;52.202;9.876;2023-03-14T09:27:01;98076.03;;;13.90;94.46
19676;BME280;39539;52.202;9.876;2023-03-14T09:29:27;98084.09;;;14.18;91.60
19676;BME280;39539;52.202;9.876;2023-03-14T09:31:52;98063.91;;;14.25;90.30
19676;BME280;39539;52.202;9.876;2023-03-14T09:34:18;98074.09;;;14.23;90.46
19676;BME280;39539;52.202;9.876;2023-03-14T09:36:44;98068.22;;;14.81;87.68
19676;BME280;39539;52.202;9.876;2023-03-14T09:39:11;98060.41;;;15.58;86.17
19676;BME280;39539;52.202;9.876;2023-03-14T09:41:41;98075.19;;;17.20;79.69
19676;BME280;39539;52.202;9.876;2023-03-14T09:44:15;98054.69;;;16.75;76.98
19676;BME280;39539;52.202;9.876;2023-03-14T09:46:45;98045.44;;;16.10;79.19
19676;BME280;39539;52.202;9.876;2023-03-14T09:49:29;98039.03;;;15.08;85.32
19676;BME280;39539;52.202;9.876;2023-03-14T09:52:00;98026.50;;;14.39;86.81
19676;BME280;39539;52.202;9.876;2023-03-14T09:54:38;98039.56;;;14.13;90.78
19676;BME280;39539;52.202;9.876;2023-03-14T09:57:12;98036.81;;;13.53;92.33
19676;BME280;39539;52.202;9.876;2023-03-14T09:59:42;98036.25;;;13.18;98.46
19676;BME280;39539;52.202;9.876;2023-03-14T10:02:22;98048.00;;;12.98;97.92
19676;BME280;39539;52.202;9.876;2023-03-14T10:04:50;98059.97;;;12.76;100.00
19676;BME280;39539;52.202;9.876;2023-03-14T10:07:37;98060.28;;;12.51;100.00
19676;BME280;39539;52.202;9.876;2023-03-14T10:10:10;98061.88;;;12.28;100.00
19676;BME280;39539;52.202;9.876;2023-03-14T10:12:37;98070.34;;;12.35;100.00
19676;BME280;39539;52.202;9.876;2023-03-14T10:15:09;98077.78;;;13.24;100.00
19676;BME280;39539;52.202;9.876;2023-03-14T10:17:51;98082.94;;;14.51;97.28
19676;BME280;39539;52.202;9.876;2023-03-14T10:23:37;98067.34;;;14.58;90.00
19676;BME280;39539;52.202;9.876;2023-03-14T10:26:12;98062.13;;;14.34;92.35
19676;BME280;39539;52.202;9.876;2023-03-14T10:29:01;98074.44;;;14.49;92.81
19676;BME280;39539;52.202;9.876;2023-03-14T10:31:27;98077.03;;;14.68;93.47
19676;BME280;39539;52.202;9.876;2023-03-14T10:34:15;98074.03;;;14.42;93.66
19676;BME280;39539;52.202;9.876;2023-03-14T10:36:42;98064.28;;;14.05;95.55
19676;BME280;39539;52.202;9.876;2023-03-14T10:42:04;98059.66;;;13.78;95.91
19676;BME280;39539;52.202;9.876;2023-03-14T10:44:30;98063.22;;;13.87;98.60
19676;BME280;39539;52.202;9.876;2023-03-14T10:47:00;98058.84;;;14.10;97.44
19676;BME280;39539;52.202;9.876;2023-03-14T10:49:35;98059.56;;;14.15;93.75
19676;BME280;39539;52.202;9.876;2023-03-14T10:54:38;98052.66;;;14.42;93.71
19676;BME280;39539;52.202;9.876;2023-03-14T10:57:06;98049.81;;;14.06;88.79
19676;BME280;39539;52.202;9.876;2023-03-14T10:59:37;98055.59;;;14.13;91.78
19676;BME280;39539;52.202;9.876;2023-03-14T11:02:57;98051.38;;;13.79;91.74
19676;BME280;39539;52.202;9.876;2023-03-14T11:07:44;98053.03;;;13.18;95.77
19676;BME280;39539;52.202;9.876;2023-03-14T11:10:18;98050.44;;;12.94;97.79
19676;BME280;39539;52.202;9.876;2023-03-14T11:12:58;98050.44;;;12.94;98.08
19676;BME280;39539;52.202;9.876;2023-03-14T11:22:06;98069.88;;;14.36;92.05
19676;BME280;39539;52.202;9.876;2023-03-14T11:27:35;98065.03;;;14.52;89.68
19676;BME280;39539;52.202;9.876;2023-03-14T11:32:50;98053.81;;;14.22;92.06
19676;BME280;39539;52.202;9.876;2023-03-14T11:35:30;98049.66;;;14.16;93.83
19676;BME280;39539;52.202;9.876;2023-03-14T11:40:47;98074.63;;;13.60;98.67
19676;BME280;39539;52.202;9.876;2023-03-14T11:43:33;98159.94;;;13.27;98.84
19676;BME280;39539;52.202;9.876;2023-03-14T11:46:12;98137.53;;;10.98;97.87
19676;BME280;39539;52.202;9.876;2023-03-14T11:49:03;98173.50;;;8.95;100.00
19676;BME280;39539;52.202;9.876;2023-03-14T11:51:36;98183.81;;;7.84;100.00
19676;BME280;39539;52.202;9.876;2023-03-14T11:57:02;98247.66;;;7.27;100.00
19676;BME280;39539;52.202;9.876;2023-03-14T11:59:53;98265.00;;;7.01;100.00
19676;BME280;39539;52.202;9.876;2023-03-14T12:10:44;98343.94;;;6.97;100.00
19676;BME280;39539;52.202;9.876;2023-03-14T12:13:13;98342.66;;;6.83;100.00
19676;BME280;39539;52.202;9.876;2023-03-14T12:15:47;98369.22;;;6.77;100.00
19676;BME280;39539;52.202;9.876;2023-03-14T12:18:36;98400.25;;;6.69;100.00
19676;BME280;39539;52.202;9.876;2023-03-14T12:21:09;98422.78;;;6.60;100.00
19676;BME280;39539;52.202;9.876;2023-03-14T12:23:44;98418.19;;;6.56;100.00
19676;BME280;39539;52.202;9.876;2023-03-14T12:28:38;98461.31;;;6.33;100.00
19676;BME280;39539;52.202;9.876;2023-03-14T12:34:28;98486.13;;;5.73;100.00
19676;BME280;39539;52.202;9.876;2023-03-14T12:42:45;98545.19;;;5.30;100.00
19676;BME280;39539;52.202;9.876;2023-03-14T12:45:27;98565.03;;;5.14;100.00
19676;BME280;39539;52.202;9.876;2023-03-14T12:50:31;98566.38;;;5.05;100.00
19676;BME280;39539;52.202;9.876;2023-03-14T12:58:54;98640.81;;;5.30;100.00
19676;BME280;39539;52.202;9.876;2023-03-14T13:01:25;98629.28;;;5.13;100.00
19676;BME280;39539;52.202;9.876;2023-03-14T13:04:08;98642.59;;;5.18;100.00
19676;BME280;39539;52.202;9.876;2023-03-14T13:12:09;98693.19;;;5.20;100.00
19676;BME280;39539;52.202;9.876;2023-03-14T13:14:41;98712.06;;;5.35;100.00
19676;BME280;39539;52.202;9.876;2023-03-14T13:17:11;98721.06;;;5.28;100.00
19676;BME280;39539;52.202;9.876;2023-03-14T13:19:37;98743.94;;;5.46;100.00
19676;BME280;39539;52.202;9.876;2023-03-14T13:22:06;98747.78;;;5.50;100.00
19676;BME280;39539;52.202;9.876;2023-03-14T13:24:39;98748.84;;;5.60;100.00
19676;BME280;39539;52.202;9.876;2023-03-14T13:27:16;98735.53;;;6.04;100.00
19676;BME280;39539;52.202;9.876;2023-03-14T13:29:43;98759.00;;;6.36;100.00
19676;BME280;39539;52.202;9.876;2023-03-14T13:32:26;98765.66;;;6.50;100.00
19676;BME280;39539;52.202;9.876;2023-03-14T13:34:56;98761.78;;;6.64;100.00
19676;BME280;39539;52.202;9.876;2023-03-14T13:37:23;98770.59;;;6.46;100.00
19676;BME280;39539;52.202;9.876;2023-03-14T13:39:56;98789.06;;;6.46;100.00
19676;BME280;39539;52.202;9.876;2023-03-14T13:42:28;98786.56;;;6.10;100.00
19676;BME280;39539;52.202;9.876;2023-03-14T13:44:56;98798.38;;;6.07;100.00
19676;BME280;39539;52.202;9.876;2023-03-14T13:47:24;98788.56;;;5.96;100.00
19676;BME280;39539;52.202;9.876;2023-03-14T13:49:50;98786.75;;;5.78;100.00
19676;BME280;39539;52.202;9.876;2023-03-14T13:52:24;98805.84;;;5.92;100.00
19676;BME280;39539;52.202;9.876;2023-03-14T13:54:54;98789.16;;;5.98;100.00
19676;BME280;39539;52.202;9.876;2023-03-14T13:57:20;98804.75;;;5.99;100.00
19676;BME280;39539;52.202;9.876;2023-03-14T13:59:58;98810.16;;;6.04;100.00
19676;BME280;39539;52.202;9.876;2023-03-14T14:02:25;98830.00;;;6.07;100.00
19676;BME280;39539;52.202;9.876;2023-03-14T14:04:51;98842.22;;;6.20;100.00
19676;BME280;39539;52.202;9.876;2023-03-14T14:07:18;98838.06;;;6.12;100.00
19676;BME280;39539;52.202;9.876;2023-03-14T14:09:47;98847.13;;;6.46;100.00
19676;BME280;39539;52.202;9.876;2023-03-14T14:12:21;98867.72;;;6.68;100.00